sensor_id;sensor_type;location;lat;lon;timestamp;temperature;humidity
77519;DHT22;66629;47.346;19.038;2023-05-07T00:01:50;15.34;92.61
77519;DHT22;66629;47.346;19.038;2023-05-07T00:04:17;15.38;92.41
77519;DHT22;66629;47.346;19.038;2023-05-07T00:06:42;15.42;92.40
77519;DHT22;66629;47.346;19.038;2023-05-07T00:09:07;15.41;92.32
77519;DHT22;66629;47.346;19.038;2023-05-07T00:11:33;15.35;92.89
77519;DHT22;66629;47.346;19.038;2023-05-07T00:14:02;15.34;92.26
77519;DHT22;66629;47.346;19.038;2023-05-07T00:16:27;15.27;92.40
77519;DHT22;66629;47.346;19.038;2023-05-07T00:18:53;15.04;93.24
77519;DHT22;66629;47.346;19.038;2023-05-07T00:21:18;15.13;93.39
77519;DHT22;66629;47.346;19.038;2023-05-07T00:23:44;15.08;93.07
77519;DHT22;66629;47.346;19.038;2023-05-07T00:26:09;14.99;93.82
77519;DHT22;66629;47.346;19.038;2023-05-07T00:28:35;15.06;93.35
77519;DHT22;66629;47.346;19.038;2023-05-07T00:31:00;15.13;93.24
77519;DHT22;66629;47.346;19.038;2023-05-07T00:33:25;15.04;92.98
77519;DHT22;66629;47.346;19.038;2023-05-07T00:35:52;15.17;93.49
77519;DHT22;66629;47.346;19.038;2023-05-07T00:38:19;15.21;92.70
77519;DHT22;66629;47.346;19.038;2023-05-07T00:40:45;15.21;92.68
77519;DHT22;66629;47.346;19.038;2023-05-07T00:43:10;15.14;92.84
77519;DHT22;66629;47.346;19.038;2023-05-07T00:45:36;15.04;92.91
77519;DHT22;66629;47.346;19.038;2023-05-07T00:48:02;15.02;93.09
77519;DHT22;66629;47.346;19.038;2023-05-07T00:50:28;15.02;93.01
77519;DHT22;66629;47.346;19.038;2023-05-07T00:52:54;15.02;93.11
77519;DHT22;66629;47.346;19.038;2023-05-07T00:55:21;14.90;92.84
77519;DHT22;66629;47.346;19.038;2023-05-07T00:57:47;14.94;92.66
77519;DHT22;66629;47.346;19.038;2023-05-07T01:00:13;14.86;92.61
77519;DHT22;66629;47.346;19.038;2023-05-07T01:02:39;14.85;92.33
77519;DHT22;66629;47.346;19.038;2023-05-07T01:05:05;14.89;92.45
77519;DHT22;66629;47.346;19.038;2023-05-07T01:07:33;14.90;92.54
77519;DHT22;66629;47.346;19.038;2023-05-07T01:09:59;14.89;92.32
77519;DHT22;66629;47.346;19.038;2023-05-07T01:12:26;14.83;92.27
77519;DHT22;66629;47.346;19.038;2023-05-07T01:14:53;14.75;92.11
77519;DHT22;66629;47.346;19.038;2023-05-07T01:17:18;14.67;92.11
77519;DHT22;66629;47.346;19.038;2023-05-07T01:19:44;14.68;92.78
77519;DHT22;66629;47.346;19.038;2023-05-07T01:22:10;14.65;92.57
77519;DHT22;66629;47.346;19.038;2023-05-07T01:24:40;14.58;92.74
77519;DHT22;66629;47.346;19.038;2023-05-07T01:27:05;14.55;92.84
77519;DHT22;66629;47.346;19.038;2023-05-07T01:29:31;14.57;93.13
77519;DHT22;66629;47.346;19.038;2023-05-07T01:31:59;14.52;92.80
77519;DHT22;66629;47.346;19.038;2023-05-07T01:34:26;14.48;92.55
77519;DHT22;66629;47.346;19.038;2023-05-07T01:36:53;14.52;92.92
77519;DHT22;66629;47.346;19.038;2023-05-07T01:39:21;14.54;92.83
77519;DHT22;66629;47.346;19.038;2023-05-07T01:41:47;14.54;92.59
77519;DHT22;66629;47.346;19.038;2023-05-07T01:44:14;14.42;92.60
77519;DHT22;66629;47.346;19.038;2023-05-07T01:46:40;14.42;92.56
77519;DHT22;66629;47.346;19.038;2023-05-07T01:49:05;14.44;92.72
77519;DHT22;66629;47.346;19.038;2023-05-07T01:51:31;14.37;92.80
77519;DHT22;66629;47.346;19.038;2023-05-07T01:53:57;14.38;92.47
77519;DHT22;66629;47.346;19.038;2023-05-07T01:56:25;14.38;92.71
77519;DHT22;66629;47.346;19.038;2023-05-07T01:58:50;14.33;92.85
77519;DHT22;66629;47.346;19.038;2023-05-07T02:01:17;14.34;93.03
77519;DHT22;66629;47.346;19.038;2023-05-07T02:03:43;14.26;92.84
77519;DHT22;66629;47.346;19.038;2023-05-07T02:06:09;14.30;92.63
77519;DHT22;66629;47.346;19.038;2023-05-07T02:08:34;14.31;92.22
77519;DHT22;66629;47.346;19.038;2023-05-07T02:11:00;14.26;91.85
77519;DHT22;66629;47.346;19.038;2023-05-07T02:13:28;14.27;92.34
77519;DHT22;66629;47.346;19.038;2023-05-07T02:15:54;14.23;92.23
77519;DHT22;66629;47.346;19.038;2023-05-07T02:18:19;14.17;92.32
77519;DHT22;66629;47.346;19.038;2023-05-07T02:20:44;14.12;92.05
77519;DHT22;66629;47.346;19.038;2023-05-07T02:23:10;13.95;92.36
77519;DHT22;66629;47.346;19.038;2023-05-07T02:25:35;13.93;92.44
77519;DHT22;66629;47.346;19.038;2023-05-07T02:28:01;13.95;92.63
77519;DHT22;66629;47.346;19.038;2023-05-07T02:30:26;13.78;92.65
77519;DHT22;66629;47.346;19.038;2023-05-07T02:32:52;13.83;93.74
77519;DHT22;66629;47.346;19.038;2023-05-07T02:35:17;13.68;93.32
77519;DHT22;66629;47.346;19.038;2023-05-07T02:37:43;13.65;93.43
77519;DHT22;66629;47.346;19.038;2023-05-07T02:40:09;13.64;93.25
77519;DHT22;66629;47.346;19.038;2023-05-07T02:42:34;13.60;92.96
77519;DHT22;66629;47.346;19.038;2023-05-07T02:45:00;13.55;93.19
77519;DHT22;66629;47.346;19.038;2023-05-07T02:47:25;13.57;93.14
77519;DHT22;66629;47.346;19.038;2023-05-07T02:49:53;13.54;93.53
77519;DHT22;66629;47.346;19.038;2023-05-07T02:52:19;13.61;93.58
77519;DHT22;66629;47.346;19.038;2023-05-07T02:54:44;13.68;93.81
77519;DHT22;66629;47.346;19.038;2023-05-07T02:57:10;13.62;93.72
77519;DHT22;66629;47.346;19.038;2023-05-07T02:59:35;13.64;93.72
77519;DHT22;66629;47.346;19.038;2023-05-07T03:02:01;13.54;93.17
77519;DHT22;66629;47.346;19.038;2023-05-07T03:04:26;13.54;93.97
77519;DHT22;66629;47.346;19.038;2023-05-07T03:06:52;13.64;94.19
77519;DHT22;66629;47.346;19.038;2023-05-07T03:09:17;13.58;93.36
77519;DHT22;66629;47.346;19.038;2023-05-07T03:11:43;13.55;92.85
77519;DHT22;66629;47.346;19.038;2023-05-07T03:14:08;13.57;93.90
77519;DHT22;66629;47.346;19.038;2023-05-07T03:16:34;13.58;93.51
77519;DHT22;66629;47.346;19.038;2023-05-07T03:18:59;13.53;93.18
77519;DHT22;66629;47.346;19.038;2023-05-07T03:21:25;13.53;93.29
77519;DHT22;66629;47.346;19.038;2023-05-07T03:23:51;13.57;94.06
77519;DHT22;66629;47.346;19.038;2023-05-07T03:26:17;13.64;93.69
77519;DHT22;66629;47.346;19.038;2023-05-07T03:28:42;13.57;92.91
77519;DHT22;66629;47.346;19.038;2023-05-07T03:31:08;13.55;93.13
77519;DHT22;66629;47.346;19.038;2023-05-07T03:33:34;13.40;92.96
77519;DHT22;66629;47.346;19.038;2023-05-07T03:36:00;13.40;93.20
77519;DHT22;66629;47.346;19.038;2023-05-07T03:38:25;13.50;93.38
77519;DHT22;66629;47.346;19.038;2023-05-07T03:40:51;13.51;93.42
77519;DHT22;66629;47.346;19.038;2023-05-07T03:43:16;13.53;93.04
77519;DHT22;66629;47.346;19.038;2023-05-07T03:45:42;13.37;93.06
77519;DHT22;66629;47.346;19.038;2023-05-07T03:48:07;13.42;93.63
77519;DHT22;66629;47.346;19.038;2023-05-07T03:50:33;13.48;93.12
77519;DHT22;66629;47.346;19.038;2023-05-07T03:52:58;13.47;93.13
77519;DHT22;66629;47.346;19.038;2023-05-07T03:55:24;13.46;93.36
77519;DHT22;66629;47.346;19.038;2023-05-07T03:57:50;13.43;93.06
77519;DHT22;66629;47.346;19.038;2023-05-07T04:00:16;13.44;93.15
77519;DHT22;66629;47.346;19.038;2023-05-07T04:02:41;13.36;93.01
77519;DHT22;66629;47.346;19.038;2023-05-07T04:05:07;13.43;93.43
77519;DHT22;66629;47.346;19.038;2023-05-07T04:07:33;13.48;93.74
77519;DHT22;66629;47.346;19.038;2023-05-07T04:09:58;13.53;93.47
77519;DHT22;66629;47.346;19.038;2023-05-07T04:12:23;13.53;93.23
77519;DHT22;66629;47.346;19.038;2023-05-07T04:14:49;13.46;92.85
77519;DHT22;66629;47.346;19.038;2023-05-07T04:17:15;13.48;93.56
77519;DHT22;66629;47.346;19.038;2023-05-07T04:19:40;13.57;93.88
77519;DHT22;66629;47.346;19.038;2023-05-07T04:22:10;13.81;93.58
77519;DHT22;66629;47.346;19.038;2023-05-07T04:24:36;14.20;92.91
77519;DHT22;66629;47.346;19.038;2023-05-07T04:27:01;14.61;92.81
77519;DHT22;66629;47.346;19.038;2023-05-07T04:29:26;14.99;91.32
77519;DHT22;66629;47.346;19.038;2023-05-07T04:31:52;15.28;90.03
77519;DHT22;66629;47.346;19.038;2023-05-07T04:34:17;15.61;89.06
77519;DHT22;66629;47.346;19.038;2023-05-07T04:36:43;15.76;88.76
77519;DHT22;66629;47.346;19.038;2023-05-07T04:39:08;16.04;88.37
77519;DHT22;66629;47.346;19.038;2023-05-07T04:41:36;16.24;87.01
77519;DHT22;66629;47.346;19.038;2023-05-07T04:44:01;16.22;86.14
77519;DHT22;66629;47.346;19.038;2023-05-07T04:46:29;16.59;86.08
77519;DHT22;66629;47.346;19.038;2023-05-07T04:48:55;16.95;85.40
77519;DHT22;66629;47.346;19.038;2023-05-07T04:51:20;17.14;83.65
77519;DHT22;66629;47.346;19.038;2023-05-07T04:53:45;16.84;83.27
77519;DHT22;66629;47.346;19.038;2023-05-07T04:56:11;16.70;83.06
77519;DHT22;66629;47.346;19.038;2023-05-07T04:58:36;16.73;84.04
77519;DHT22;66629;47.346;19.038;2023-05-07T05:01:02;16.84;84.35
77519;DHT22;66629;47.346;19.038;2023-05-07T05:03:27;17.01;84.13
77519;DHT22;66629;47.346;19.038;2023-05-07T05:05:53;17.12;83.88
77519;DHT22;66629;47.346;19.038;2023-05-07T05:08:18;17.18;83.66
77519;DHT22;66629;47.346;19.038;2023-05-07T05:10:44;17.16;83.42
77519;DHT22;66629;47.346;19.038;2023-05-07T05:13:09;16.98;83.16
77519;DHT22;66629;47.346;19.038;2023-05-07T05:15:38;17.03;82.42
77519;DHT22;66629;47.346;19.038;2023-05-07T05:18:03;17.49;81.21
77519;DHT22;66629;47.346;19.038;2023-05-07T05:20:28;17.87;80.42
77519;DHT22;66629;47.346;19.038;2023-05-07T05:22:54;17.89;80.17
77519;DHT22;66629;47.346;19.038;2023-05-07T05:25:20;17.70;80.75
77519;DHT22;66629;47.346;19.038;2023-05-07T05:27:45;17.88;81.16
77519;DHT22;66629;47.346;19.038;2023-05-07T05:30:11;18.16;79.76
77519;DHT22;66629;47.346;19.038;2023-05-07T05:32:38;18.09;81.50
77519;DHT22;66629;47.346;19.038;2023-05-07T05:35:03;18.05;80.55
77519;DHT22;66629;47.346;19.038;2023-05-07T05:37:29;18.61;79.05
77519;DHT22;66629;47.346;19.038;2023-05-07T05:39:56;18.51;80.09
77519;DHT22;66629;47.346;19.038;2023-05-07T05:42:21;18.54;77.80
77519;DHT22;66629;47.346;19.038;2023-05-07T05:44:47;17.94;80.39
77519;DHT22;66629;47.346;19.038;2023-05-07T05:47:13;18.19;80.47
77519;DHT22;66629;47.346;19.038;2023-05-07T05:49:38;18.47;78.19
77519;DHT22;66629;47.346;19.038;2023-05-07T05:52:04;18.95;76.68
77519;DHT22;66629;47.346;19.038;2023-05-07T05:54:29;19.58;75.99
77519;DHT22;66629;47.346;19.038;2023-05-07T05:56:55;20.03;74.44
77519;DHT22;66629;47.346;19.038;2023-05-07T05:59:20;20.34;74.70
77519;DHT22;66629;47.346;19.038;2023-05-07T06:01:46;20.23;72.05
77519;DHT22;66629;47.346;19.038;2023-05-07T06:04:12;20.35;72.13
77519;DHT22;66629;47.346;19.038;2023-05-07T06:06:37;20.09;73.70
77519;DHT22;66629;47.346;19.038;2023-05-07T06:09:02;20.55;72.27
77519;DHT22;66629;47.346;19.038;2023-05-07T06:11:28;20.66;70.78
77519;DHT22;66629;47.346;19.038;2023-05-07T06:13:53;21.15;68.14
77519;DHT22;66629;47.346;19.038;2023-05-07T06:16:19;21.42;68.42
77519;DHT22;66629;47.346;19.038;2023-05-07T06:18:44;21.31;67.88
77519;DHT22;66629;47.346;19.038;2023-05-07T06:21:12;20.79;68.89
77519;DHT22;66629;47.346;19.038;2023-05-07T06:23:38;20.89;68.65
77519;DHT22;66629;47.346;19.038;2023-05-07T06:26:06;21.45;69.53
77519;DHT22;66629;47.346;19.038;2023-05-07T06:28:31;22.12;69.23
77519;DHT22;66629;47.346;19.038;2023-05-07T06:31:21;22.52;67.05
77519;DHT22;66629;47.346;19.038;2023-05-07T06:33:46;22.61;66.58
77519;DHT22;66629;47.346;19.038;2023-05-07T06:36:12;22.45;65.90
77519;DHT22;66629;47.346;19.038;2023-05-07T06:38:38;22.01;68.22
77519;DHT22;66629;47.346;19.038;2023-05-07T06:41:05;22.04;68.24
77519;DHT22;66629;47.346;19.038;2023-05-07T06:43:30;22.34;68.96
77519;DHT22;66629;47.346;19.038;2023-05-07T06:45:55;22.31;66.34
77519;DHT22;66629;47.346;19.038;2023-05-07T06:48:21;21.67;67.92
77519;DHT22;66629;47.346;19.038;2023-05-07T06:50:46;21.69;68.13
77519;DHT22;66629;47.346;19.038;2023-05-07T06:53:12;21.80;67.99
77519;DHT22;66629;47.346;19.038;2023-05-07T06:55:37;21.34;68.16
77519;DHT22;66629;47.346;19.038;2023-05-07T06:58:03;21.46;68.62
77519;DHT22;66629;47.346;19.038;2023-05-07T07:00:29;21.18;66.77
77519;DHT22;66629;47.346;19.038;2023-05-07T07:02:54;20.72;68.69
77519;DHT22;66629;47.346;19.038;2023-05-07T07:05:20;21.24;68.07
77519;DHT22;66629;47.346;19.038;2023-05-07T07:07:47;21.83;66.61
77519;DHT22;66629;47.346;19.038;2023-05-07T07:10:21;22.02;66.30
77519;DHT22;66629;47.346;19.038;2023-05-07T07:12:47;22.08;65.37
77519;DHT22;66629;47.346;19.038;2023-05-07T07:15:14;22.18;66.27
77519;DHT22;66629;47.346;19.038;2023-05-07T07:17:39;22.15;65.67
77519;DHT22;66629;47.346;19.038;2023-05-07T07:20:05;22.09;65.08
77519;DHT22;66629;47.346;19.038;2023-05-07T07:22:31;21.90;65.68
77519;DHT22;66629;47.346;19.038;2023-05-07T07:24:56;21.75;65.91
77519;DHT22;66629;47.346;19.038;2023-05-07T07:27:22;21.52;68.84
77519;DHT22;66629;47.346;19.038;2023-05-07T07:29:47;21.42;67.96
77519;DHT22;66629;47.346;19.038;2023-05-07T07:32:13;21.60;67.07
77519;DHT22;66629;47.346;19.038;2023-05-07T07:34:39;21.53;68.31
77519;DHT22;66629;47.346;19.038;2023-05-07T07:37:04;21.10;68.02
77519;DHT22;66629;47.346;19.038;2023-05-07T07:39:33;20.84;69.34
77519;DHT22;66629;47.346;19.038;2023-05-07T07:41:58;21.17;69.21
77519;DHT22;66629;47.346;19.038;2023-05-07T07:44:24;21.20;68.96
77519;DHT22;66629;47.346;19.038;2023-05-07T07:46:50;20.79;68.78
77519;DHT22;66629;47.346;19.038;2023-05-07T07:49:16;20.91;71.28
77519;DHT22;66629;47.346;19.038;2023-05-07T07:51:41;20.97;70.99
77519;DHT22;66629;47.346;19.038;2023-05-07T07:54:06;20.94;69.06
77519;DHT22;66629;47.346;19.038;2023-05-07T07:56:33;20.90;68.71
77519;DHT22;66629;47.346;19.038;2023-05-07T07:59:01;20.75;69.97
77519;DHT22;66629;47.346;19.038;2023-05-07T08:01:29;20.79;71.15
77519;DHT22;66629;47.346;19.038;2023-05-07T08:03:54;20.97;69.72
77519;DHT22;66629;47.346;19.038;2023-05-07T08:06:20;20.99;70.10
77519;DHT22;66629;47.346;19.038;2023-05-07T08:08:45;20.97;70.15
77519;DHT22;66629;47.346;19.038;2023-05-07T08:11:11;21.03;69.34
77519;DHT22;66629;47.346;19.038;2023-05-07T08:13:37;20.82;69.72
77519;DHT22;66629;47.346;19.038;2023-05-07T08:16:04;20.80;70.75
77519;DHT22;66629;47.346;19.038;2023-05-07T08:18:29;20.68;71.30
77519;DHT22;66629;47.346;19.038;2023-05-07T08:20:55;20.64;71.74
77519;DHT22;66629;47.346;19.038;2023-05-07T08:23:21;20.68;72.66
77519;DHT22;66629;47.346;19.038;2023-05-07T08:25:46;20.75;73.00
77519;DHT22;66629;47.346;19.038;2023-05-07T08:28:12;20.84;72.03
77519;DHT22;66629;47.346;19.038;2023-05-07T08:30:37;20.87;71.36
77519;DHT22;66629;47.346;19.038;2023-05-07T08:33:03;20.83;71.84
77519;DHT22;66629;47.346;19.038;2023-05-07T08:35:28;20.66;71.45
77519;DHT22;66629;47.346;19.038;2023-05-07T08:37:54;20.23;72.81
77519;DHT22;66629;47.346;19.038;2023-05-07T08:40:21;20.12;72.65
77519;DHT22;66629;47.346;19.038;2023-05-07T08:42:51;20.28;73.01
77519;DHT22;66629;47.346;19.038;2023-05-07T08:45:19;20.53;72.00
77519;DHT22;66629;47.346;19.038;2023-05-07T08:47:47;20.34;70.65
77519;DHT22;66629;47.346;19.038;2023-05-07T08:50:15;20.31;71.75
77519;DHT22;66629;47.346;19.038;2023-05-07T08:52:41;20.44;71.71
77519;DHT22;66629;47.346;19.038;2023-05-07T08:55:08;20.58;71.40
77519;DHT22;66629;47.346;19.038;2023-05-07T08:57:33;20.53;72.21
77519;DHT22;66629;47.346;19.038;2023-05-07T08:59:59;20.71;72.92
77519;DHT22;66629;47.346;19.038;2023-05-07T09:02:24;20.44;71.87
77519;DHT22;66629;47.346;19.038;2023-05-07T09:04:50;20.48;73.75
77519;DHT22;66629;47.346;19.038;2023-05-07T09:07:16;20.61;72.92
77519;DHT22;66629;47.346;19.038;2023-05-07T09:09:41;20.83;72.96
77519;DHT22;66629;47.346;19.038;2023-05-07T09:12:08;21.04;69.97
77519;DHT22;66629;47.346;19.038;2023-05-07T09:14:35;21.30;68.93
77519;DHT22;66629;47.346;19.038;2023-05-07T09:17:00;21.20;68.85
77519;DHT22;66629;47.346;19.038;2023-05-07T09:19:27;20.93;69.81
77519;DHT22;66629;47.346;19.038;2023-05-07T09:22:02;21.00;70.22
77519;DHT22;66629;47.346;19.038;2023-05-07T09:24:28;20.75;71.17
77519;DHT22;66629;47.346;19.038;2023-05-07T09:26:58;20.91;69.83
77519;DHT22;66629;47.346;19.038;2023-05-07T09:29:24;20.72;68.84
77519;DHT22;66629;47.346;19.038;2023-05-07T09:31:50;20.56;69.14
77519;DHT22;66629;47.346;19.038;2023-05-07T09:34:15;20.75;71.10
77519;DHT22;66629;47.346;19.038;2023-05-07T09:36:41;21.07;70.57
77519;DHT22;66629;47.346;19.038;2023-05-07T09:39:07;21.50;68.69
77519;DHT22;66629;47.346;19.038;2023-05-07T09:41:33;22.14;68.26
77519;DHT22;66629;47.346;19.038;2023-05-07T09:43:58;22.49;68.34
77519;DHT22;66629;47.346;19.038;2023-05-07T09:46:30;22.42;67.54
77519;DHT22;66629;47.346;19.038;2023-05-07T09:49:01;22.34;67.00
77519;DHT22;66629;47.346;19.038;2023-05-07T09:51:34;22.25;65.02
77519;DHT22;66629;47.346;19.038;2023-05-07T09:54:04;22.41;66.85
77519;DHT22;66629;47.346;19.038;2023-05-07T09:56:30;22.22;64.10
77519;DHT22;66629;47.346;19.038;2023-05-07T09:58:59;21.91;60.90
77519;DHT22;66629;47.346;19.038;2023-05-07T10:01:25;22.25;64.49
77519;DHT22;66629;47.346;19.038;2023-05-07T10:03:52;22.28;62.54
77519;DHT22;66629;47.346;19.038;2023-05-07T10:06:20;22.48;64.17
77519;DHT22;66629;47.346;19.038;2023-05-07T10:08:45;22.46;64.42
77519;DHT22;66629;47.346;19.038;2023-05-07T10:11:12;22.45;65.42
77519;DHT22;66629;47.346;19.038;2023-05-07T10:13:37;22.24;65.58
77519;DHT22;66629;47.346;19.038;2023-05-07T10:16:04;21.90;65.17
77519;DHT22;66629;47.346;19.038;2023-05-07T10:18:33;21.72;65.01
77519;DHT22;66629;47.346;19.038;2023-05-07T10:21:04;21.55;65.06
77519;DHT22;66629;47.346;19.038;2023-05-07T10:23:32;21.53;67.48
77519;DHT22;66629;47.346;19.038;2023-05-07T10:26:00;21.48;65.22
77519;DHT22;66629;47.346;19.038;2023-05-07T10:28:28;21.37;64.63
77519;DHT22;66629;47.346;19.038;2023-05-07T10:30:59;21.39;65.92
77519;DHT22;66629;47.346;19.038;2023-05-07T10:33:28;21.23;67.05
77519;DHT22;66629;47.346;19.038;2023-05-07T10:35:59;21.00;68.03
77519;DHT22;66629;47.346;19.038;2023-05-07T10:38:27;21.04;68.41
77519;DHT22;66629;47.346;19.038;2023-05-07T10:40:52;21.23;68.35
77519;DHT22;66629;47.346;19.038;2023-05-07T10:43:18;21.28;69.23
77519;DHT22;66629;47.346;19.038;2023-05-07T10:45:44;21.32;68.66
77519;DHT22;66629;47.346;19.038;2023-05-07T10:48:29;21.49;68.88
77519;DHT22;66629;47.346;19.038;2023-05-07T10:51:20;21.82;69.30
77519;DHT22;66629;47.346;19.038;2023-05-07T10:53:46;22.01;67.43
77519;DHT22;66629;47.346;19.038;2023-05-07T10:58:46;22.22;67.74
77519;DHT22;66629;47.346;19.038;2023-05-07T11:01:11;22.18;66.16
77519;DHT22;66629;47.346;19.038;2023-05-07T11:04:12;22.08;65.88
77519;DHT22;66629;47.346;19.038;2023-05-07T11:06:37;22.21;67.24
77519;DHT22;66629;47.346;19.038;2023-05-07T11:09:03;22.12;65.77
77519;DHT22;66629;47.346;19.038;2023-05-07T11:11:55;22.45;65.28
77519;DHT22;66629;47.346;19.038;2023-05-07T11:14:50;22.97;63.48
77519;DHT22;66629;47.346;19.038;2023-05-07T11:17:16;23.22;62.71
77519;DHT22;66629;47.346;19.038;2023-05-07T11:19:53;23.64;60.68
77519;DHT22;66629;47.346;19.038;2023-05-07T11:24:57;23.50;55.91
77519;DHT22;66629;47.346;19.038;2023-05-07T11:27:24;23.61;55.32
77519;DHT22;66629;47.346;19.038;2023-05-07T11:29:50;23.91;57.72
77519;DHT22;66629;47.346;19.038;2023-05-07T11:32:22;24.37;55.70
77519;DHT22;66629;47.346;19.038;2023-05-07T11:34:51;24.61;55.35
77519;DHT22;66629;47.346;19.038;2023-05-07T11:37:17;24.77;53.23
77519;DHT22;66629;47.346;19.038;2023-05-07T11:39:43;24.53;53.81
77519;DHT22;66629;47.346;19.038;2023-05-07T11:42:29;24.41;50.64
77519;DHT22;66629;47.346;19.038;2023-05-07T11:44:55;24.22;53.16
77519;DHT22;66629;47.346;19.038;2023-05-07T11:47:21;24.68;53.76
77519;DHT22;66629;47.346;19.038;2023-05-07T11:49:51;24.81;54.93
77519;DHT22;66629;47.346;19.038;2023-05-07T11:52:18;25.05;51.98
77519;DHT22;66629;47.346;19.038;2023-05-07T11:54:55;25.06;54.42
77519;DHT22;66629;47.346;19.038;2023-05-07T11:57:22;24.79;53.67
77519;DHT22;66629;47.346;19.038;2023-05-07T11:59:47;25.03;52.54
77519;DHT22;66629;47.346;19.038;2023-05-07T12:02:17;25.34;52.50
77519;DHT22;66629;47.346;19.038;2023-05-07T12:04:43;25.05;51.59
77519;DHT22;66629;47.346;19.038;2023-05-07T12:07:12;25.18;51.71
77519;DHT22;66629;47.346;19.038;2023-05-07T12:09:40;25.36;54.52
77519;DHT22;66629;47.346;19.038;2023-05-07T12:12:05;25.31;49.65
77519;DHT22;66629;47.346;19.038;2023-05-07T12:14:31;24.78;49.98
77519;DHT22;66629;47.346;19.038;2023-05-07T12:16:58;24.47;50.87
77519;DHT22;66629;47.346;19.038;2023-05-07T12:19:24;25.18;54.03
77519;DHT22;66629;47.346;19.038;2023-05-07T12:21:50;25.28;50.84
77519;DHT22;66629;47.346;19.038;2023-05-07T12:24:16;25.43;48.60
77519;DHT22;66629;47.346;19.038;2023-05-07T12:26:41;25.68;49.81
77519;DHT22;66629;47.346;19.038;2023-05-07T12:29:07;25.33;48.55
77519;DHT22;66629;47.346;19.038;2023-05-07T12:31:32;25.71;49.90
77519;DHT22;66629;47.346;19.038;2023-05-07T12:33:58;25.75;47.16
77519;DHT22;66629;47.346;19.038;2023-05-07T12:36:23;26.16;47.22
77519;DHT22;66629;47.346;19.038;2023-05-07T12:38:50;25.43;47.52
77519;DHT22;66629;47.346;19.038;2023-05-07T12:41:15;25.50;47.82
77519;DHT22;66629;47.346;19.038;2023-05-07T12:43:44;25.62;46.41
77519;DHT22;66629;47.346;19.038;2023-05-07T12:46:10;25.60;45.61
77519;DHT22;66629;47.346;19.038;2023-05-07T12:48:41;26.03;45.14
77519;DHT22;66629;47.346;19.038;2023-05-07T12:51:08;26.26;45.54
77519;DHT22;66629;47.346;19.038;2023-05-07T12:53:40;26.20;47.28
77519;DHT22;66629;47.346;19.038;2023-05-07T12:56:07;25.84;49.49
77519;DHT22;66629;47.346;19.038;2023-05-07T12:58:34;25.38;46.56
77519;DHT22;66629;47.346;19.038;2023-05-07T13:01:03;25.68;48.01
77519;DHT22;66629;47.346;19.038;2023-05-07T13:06:18;25.72;44.34
77519;DHT22;66629;47.346;19.038;2023-05-07T13:08:42;25.68;45.78
77519;DHT22;66629;47.346;19.038;2023-05-07T13:11:09;24.88;49.69
77519;DHT22;66629;47.346;19.038;2023-05-07T13:13:36;24.92;50.84
77519;DHT22;66629;47.346;19.038;2023-05-07T13:16:02;24.77;51.60
77519;DHT22;66629;47.346;19.038;2023-05-07T13:18:29;24.20;52.12
77519;DHT22;66629;47.346;19.038;2023-05-07T13:20:55;24.13;54.10
77519;DHT22;66629;47.346;19.038;2023-05-07T13:23:20;25.57;51.56
77519;DHT22;66629;47.346;19.038;2023-05-07T13:25:46;25.52;50.24
77519;DHT22;66629;47.346;19.038;2023-05-07T13:28:12;25.45;50.10
77519;DHT22;66629;47.346;19.038;2023-05-07T13:30:37;25.37;48.70
77519;DHT22;66629;47.346;19.038;2023-05-07T13:33:03;25.22;50.05
77519;DHT22;66629;47.346;19.038;2023-05-07T13:35:29;25.27;47.67
77519;DHT22;66629;47.346;19.038;2023-05-07T13:37:55;25.68;48.20
77519;DHT22;66629;47.346;19.038;2023-05-07T13:40:21;25.72;48.11
77519;DHT22;66629;47.346;19.038;2023-05-07T13:42:47;25.12;49.16
77519;DHT22;66629;47.346;19.038;2023-05-07T13:45:13;25.09;49.64
77519;DHT22;66629;47.346;19.038;2023-05-07T13:47:42;24.69;50.39
77519;DHT22;66629;47.346;19.038;2023-05-07T13:50:09;24.49;50.96
77519;DHT22;66629;47.346;19.038;2023-05-07T13:52:36;24.77;50.34
77519;DHT22;66629;47.346;19.038;2023-05-07T13:55:02;25.09;50.84
77519;DHT22;66629;47.346;19.038;2023-05-07T13:57:28;25.41;48.45
77519;DHT22;66629;47.346;19.038;2023-05-07T13:59:53;25.43;49.27
77519;DHT22;66629;47.346;19.038;2023-05-07T14:02:18;25.51;47.35
77519;DHT22;66629;47.346;19.038;2023-05-07T14:04:44;25.24;49.63
77519;DHT22;66629;47.346;19.038;2023-05-07T14:07:10;25.47;49.01
77519;DHT22;66629;47.346;19.038;2023-05-07T14:09:35;24.84;49.60
77519;DHT22;66629;47.346;19.038;2023-05-07T14:12:01;24.67;50.67
77519;DHT22;66629;47.346;19.038;2023-05-07T14:14:27;24.82;51.66
77519;DHT22;66629;47.346;19.038;2023-05-07T14:16:52;24.77;49.70
77519;DHT22;66629;47.346;19.038;2023-05-07T14:19:17;24.63;49.89
77519;DHT22;66629;47.346;19.038;2023-05-07T14:21:43;24.53;49.51
77519;DHT22;66629;47.346;19.038;2023-05-07T14:24:08;24.43;51.61
77519;DHT22;66629;47.346;19.038;2023-05-07T14:26:34;24.65;50.09
77519;DHT22;66629;47.346;19.038;2023-05-07T14:29:00;24.43;50.42
77519;DHT22;66629;47.346;19.038;2023-05-07T14:31:25;24.41;51.29
77519;DHT22;66629;47.346;19.038;2023-05-07T14:33:51;24.35;50.95
77519;DHT22;66629;47.346;19.038;2023-05-07T14:36:17;24.36;50.06
77519;DHT22;66629;47.346;19.038;2023-05-07T14:38:45;24.57;50.54
77519;DHT22;66629;47.346;19.038;2023-05-07T14:41:11;24.20;50.27
77519;DHT22;66629;47.346;19.038;2023-05-07T14:43:36;24.37;51.10
77519;DHT22;66629;47.346;19.038;2023-05-07T14:46:01;24.37;49.58
77519;DHT22;66629;47.346;19.038;2023-05-07T14:48:27;24.01;49.86
77519;DHT22;66629;47.346;19.038;2023-05-07T14:50:52;24.22;49.28
77519;DHT22;66629;47.346;19.038;2023-05-07T14:53:18;24.02;51.55
77519;DHT22;66629;47.346;19.038;2023-05-07T14:55:43;23.84;50.91
77519;DHT22;66629;47.346;19.038;2023-05-07T14:58:10;23.42;51.20
77519;DHT22;66629;47.346;19.038;2023-05-07T15:00:36;23.39;50.84
77519;DHT22;66629;47.346;19.038;2023-05-07T15:03:06;23.45;51.11
77519;DHT22;66629;47.346;19.038;2023-05-07T15:05:32;23.47;50.57
77519;DHT22;66629;47.346;19.038;2023-05-07T15:07:58;23.81;52.27
77519;DHT22;66629;47.346;19.038;2023-05-07T15:10:23;23.43;51.45
77519;DHT22;66629;47.346;19.038;2023-05-07T15:12:48;23.71;51.91
77519;DHT22;66629;47.346;19.038;2023-05-07T15:15:14;23.74;51.18
77519;DHT22;66629;47.346;19.038;2023-05-07T15:17:40;23.50;52.27
77519;DHT22;66629;47.346;19.038;2023-05-07T15:20:06;23.42;52.09